Time;durP1;ratioP1;P1;durP2;ratioP2;P2;SDS_P1;SDS_P2;PMS_P1;PMS_P2;Temp;Humidity;BMP_temperature;BMP_pressure;BME280_temperature;BME280_humidity;BME280_pressure;Samples;Min_cycle;Max_cycle;Signal;HPM_P1;HPM_P2
2022/03/21 00:01:30;;;;;;;77.85;43.63;;;;;;;;;;5071538;28;20044;-71
2022/03/21 00:03:56;;;;;;;68.90;41.63;;;;;;;;;;5071860;28;20045;-71
2022/03/21 00:06:23;;;;;;;73.40;42.53;;;;;;;;;;5071964;28;20044;-71
2022/03/21 00:08:49;;;;;;;74.18;42.80;;;;;;;;;;5087066;28;20553;-71
2022/03/21 00:11:15;;;;;;;71.97;42.33;;;;;;;;;;5071739;28;20536;-71
2022/03/21 00:13:41;;;;;;;69.38;41.75;;;;;;;;;;5072227;28;20044;-71
2022/03/21 00:16:07;;;;;;;71.50;42.22;;;;;;;;;;5071270;28;20106;-71
2022/03/21 00:18:34;;;;;;;73.10;43.67;;;;;;;;;;5071998;28;20040;-71
2022/03/21 00:21:00;;;;;;;74.38;43.90;;;;;;;;;;5071584;28;20467;-71
2022/03/21 00:23:26;;;;;;;71.32;41.58;;;;;;;;;;5071106;28;20050;-71
2022/03/21 00:25:53;;;;;;;72.13;42.92;;;;;;;;;;5063325;28;20048;-71
2022/03/21 00:28:19;;;;;;;73.72;41.67;;;;;;;;;;5051728;28;20403;-71
2022/03/21 00:30:45;;;;;;;71.60;41.50;;;;;;;;;;5050858;28;20045;-71
2022/03/21 00:33:12;;;;;;;73.05;41.70;;;;;;;;;;5051364;28;20095;-71
2022/03/21 00:35:39;;;;;;;71.63;42.67;;;;;;;;;;5049968;28;20112;-71
2022/03/21 00:38:06;;;;;;;69.43;41.15;;;;;;;;;;5050737;28;20043;-71
2022/03/21 00:40:32;;;;;;;73.40;43.00;;;;;;;;;;5051637;28;20033;-71
2022/03/21 00:42:58;;;;;;;73.90;43.05;;;;;;;;;;5051574;28;20581;-71
2022/03/21 00:45:24;;;;;;;67.90;40.40;;;;;;;;;;5050881;28;20101;-71
2022/03/21 00:47:52;;;;;;;69.03;42.88;;;;;;;;;;5050008;28;20124;-71
2022/03/21 00:50:18;;;;;;;69.40;41.95;;;;;;;;;;5050404;28;20072;-71
2022/03/21 00:52:44;;;;;;;64.53;40.80;;;;;;;;;;5051463;28;20403;-71
2022/03/21 00:55:11;;;;;;;69.15;42.75;;;;;;;;;;5049385;28;20453;-71
2022/03/21 00:57:40;;;;;;;69.40;41.40;;;;;;;;;;5050044;28;20044;-71
2022/03/21 01:00:08;;;;;;;68.47;42.17;;;;;;;;;;5051248;28;20045;-71
2022/03/21 01:02:35;;;;;;;71.00;42.97;;;;;;;;;;5050781;28;20056;-71
2022/03/21 01:05:01;;;;;;;70.00;41.55;;;;;;;;;;5049929;28;20410;-71
2022/03/21 01:07:28;;;;;;;70.40;42.33;;;;;;;;;;5050086;28;20048;-71
2022/03/21 01:09:54;;;;;;;74.13;43.22;;;;;;;;;;5050737;28;20044;-71
2022/03/21 01:12:20;;;;;;;69.45;41.42;;;;;;;;;;5051289;28;20607;-71
2022/03/21 01:14:46;;;;;;;71.40;43.30;;;;;;;;;;5051234;28;20041;-71
2022/03/21 01:17:12;;;;;;;71.63;41.95;;;;;;;;;;5050544;28;20384;-71
2022/03/21 01:19:38;;;;;;;72.13;41.92;;;;;;;;;;5051417;28;20052;-71
2022/03/21 01:22:06;;;;;;;69.15;41.72;;;;;;;;;;5049840;28;20053;-71
2022/03/21 01:24:33;;;;;;;69.03;41.30;;;;;;;;;;5049441;28;20057;-71
2022/03/21 01:26:59;;;;;;;67.82;40.03;;;;;;;;;;5066678;28;20041;-71
2022/03/21 01:29:25;;;;;;;63.80;37.83;;;;;;;;;;5070987;28;20449;-71
2022/03/21 01:31:51;;;;;;;64.35;37.83;;;;;;;;;;5068985;28;20136;-71
2022/03/21 01:34:17;;;;;;;64.90;39.80;;;;;;;;;;5070781;28;20395;-71
2022/03/21 01:36:43;;;;;;;59.35;36.05;;;;;;;;;;5071164;28;20040;-71
2022/03/21 01:39:09;;;;;;;62.40;36.63;;;;;;;;;;5069358;28;20044;-71
2022/03/21 01:41:35;;;;;;;56.40;35.05;;;;;;;;;;5103676;28;20129;-71
2022/03/21 01:44:02;;;;;;;59.75;35.33;;;;;;;;;;5069451;28;20044;-71
2022/03/21 01:46:29;;;;;;;54.60;32.83;;;;;;;;;;5105440;28;20127;-71
2022/03/21 01:48:56;;;;;;;58.55;33.60;;;;;;;;;;5074790;28;20532;-71
2022/03/21 01:51:22;;;;;;;58.13;34.63;;;;;;;;;;5074605;28;20040;-71
2022/03/21 01:56:34;;;;;;;54.63;32.28;;;;;;;;;;5074095;28;20127;-71
2022/03/21 01:59:00;;;;;;;53.78;31.73;;;;;;;;;;5074584;28;20037;-71
2022/03/21 02:01:26;;;;;;;55.75;31.83;;;;;;;;;;5073970;28;20091;-71
2022/03/21 02:03:52;;;;;;;54.78;31.83;;;;;;;;;;5074555;28;20076;-71
2022/03/21 02:06:18;;;;;;;53.13;31.10;;;;;;;;;;5074500;28;20037;-71
2022/03/21 02:08:45;;;;;;;52.83;31.00;;;;;;;;;;5073925;28;20044;-71
2022/03/21 02:11:11;;;;;;;54.88;30.23;;;;;;;;;;5072991;28;20040;-71
2022/03/21 02:13:38;;;;;;;50.72;30.05;;;;;;;;;;5106670;28;20073;-71
2022/03/21 02:16:04;;;;;;;51.72;31.75;;;;;;;;;;5073555;28;20140;-71
2022/03/21 02:18:31;;;;;;;53.90;33.38;;;;;;;;;;5074199;28;20082;-71
2022/03/21 02:20:59;;;;;;;53.03;30.92;;;;;;;;;;5074165;28;20127;-71
2022/03/21 02:23:42;;;;;;;52.67;32.28;;;;;;;;;;5073617;28;20036;-71
2022/03/21 02:26:08;;;;;;;;;;;;;;;;;;5065479;28;20041;-71
2022/03/21 02:28:35;;;;;;;46.33;26.83;;;;;;;;;;5053944;28;20324;-71
2022/03/21 02:31:02;;;;;;;46.08;26.25;;;;;;;;;;5052954;28;20643;-71
2022/03/21 02:33:28;;;;;;;49.45;26.58;;;;;;;;;;5052241;28;20052;-71
2022/03/21 02:35:56;;;;;;;43.95;26.35;;;;;;;;;;5053821;28;20037;-71
2022/03/21 02:38:22;;;;;;;44.80;25.73;;;;;;;;;;5051934;28;20435;-71
2022/03/21 02:40:48;;;;;;;43.88;25.38;;;;;;;;;;5053838;28;20044;-71
2022/03/21 02:43:14;;;;;;;38.15;23.23;;;;;;;;;;5053364;28;20040;-71
2022/03/21 02:45:41;;;;;;;39.60;22.38;;;;;;;;;;5052754;28;20045;-71
2022/03/21 02:48:07;;;;;;;36.05;21.85;;;;;;;;;;5053746;28;20064;-71
2022/03/21 02:50:39;;;;;;;35.92;21.33;;;;;;;;;;5053598;28;20043;-71
2022/03/21 02:53:06;;;;;;;39.53;23.17;;;;;;;;;;5053009;28;20077;-71
2022/03/21 02:55:33;;;;;;;39.03;23.08;;;;;;;;;;5053700;28;20112;-71
2022/03/21 02:57:59;;;;;;;39.10;22.90;;;;;;;;;;5052920;28;20041;-71
2022/03/21 03:00:25;;;;;;;34.85;21.15;;;;;;;;;;5052750;28;20067;-71
2022/03/21 03:02:51;;;;;;;33.50;20.27;;;;;;;;;;5053163;28;20041;-71
2022/03/21 03:05:17;;;;;;;36.13;20.75;;;;;;;;;;5053143;28;20391;-71
2022/03/21 03:07:43;;;;;;;32.20;19.42;;;;;;;;;;5052631;28;20076;-71
2022/03/21 03:10:09;;;;;;;37.40;20.92;;;;;;;;;;5053326;28;20102;-71
2022/03/21 03:12:35;;;;;;;34.35;19.05;;;;;;;;;;5053120;28;20391;-71
2022/03/21 03:15:01;;;;;;;34.20;19.73;;;;;;;;;;5052607;28;20041;-71
2022/03/21 03:17:27;;;;;;;30.95;18.35;;;;;;;;;;5053008;28;20045;-71
2022/03/21 03:19:54;;;;;;;34.67;19.65;;;;;;;;;;5053086;28;20032;-71
2022/03/21 03:22:21;;;;;;;32.45;18.38;;;;;;;;;;5052213;28;20771;-71
2022/03/21 03:24:48;;;;;;;33.10;19.05;;;;;;;;;;5053021;28;20063;-71
2022/03/21 03:27:14;;;;;;;34.88;19.75;;;;;;;;;;5070437;28;20044;-71
2022/03/21 03:29:40;;;;;;;35.15;19.52;;;;;;;;;;5071937;28;20052;-71
2022/03/21 03:32:06;;;;;;;30.05;18.73;;;;;;;;;;5072784;28;20102;-71
2022/03/21 03:34:33;;;;;;;36.38;19.65;;;;;;;;;;5071143;28;20052;-71
2022/03/21 03:36:59;;;;;;;29.35;17.33;;;;;;;;;;5072094;28;20064;-71
2022/03/21 03:39:25;;;;;;;32.83;18.45;;;;;;;;;;5072701;28;20486;-71
2022/03/21 03:41:52;;;;;;;31.35;18.23;;;;;;;;;;5072410;28;20044;-71
2022/03/21 03:44:18;;;;;;;31.23;17.27;;;;;;;;;;5071770;28;20083;-70
2022/03/21 03:46:47;;;;;;;31.70;17.63;;;;;;;;;;5072482;28;20051;-70
2022/03/21 03:49:13;;;;;;;30.55;17.20;;;;;;;;;;5072130;28;20044;-70
2022/03/21 03:51:39;;;;;;;31.00;17.48;;;;;;;;;;5071394;28;20050;-70
2022/03/21 03:54:05;;;;;;;28.90;17.33;;;;;;;;;;5070819;28;20125;-70
2022/03/21 03:56:31;;;;;;;29.35;17.38;;;;;;;;;;5072350;28;20748;-70
2022/03/21 03:58:57;;;;;;;33.88;16.75;;;;;;;;;;5071531;28;20052;-70
2022/03/21 04:01:23;;;;;;;34.03;17.25;;;;;;;;;;5072004;28;20407;-70
2022/03/21 04:03:49;;;;;;;29.40;16.00;;;;;;;;;;5072097;28;20537;-70
2022/03/21 04:06:20;;;;;;;27.15;16.27;;;;;;;;;;5071478;28;20032;-70
2022/03/21 04:08:47;;;;;;;33.97;16.70;;;;;;;;;;5071336;28;20115;-70
2022/03/21 04:11:13;;;;;;;29.88;16.23;;;;;;;;;;5072003;28;20179;-70
2022/03/21 04:13:40;;;;;;;29.73;16.80;;;;;;;;;;5071588;28;20036;-70
2022/03/21 04:16:06;;;;;;;32.22;16.52;;;;;;;;;;5072029;28;20075;-70
2022/03/21 04:18:33;;;;;;;29.23;16.33;;;;;;;;;;5071707;28;20040;-70
2022/03/21 04:20:59;;;;;;;26.60;16.10;;;;;;;;;;5071457;28;20033;-70
2022/03/21 04:23:25;;;;;;;26.70;15.48;;;;;;;;;;5071790;28;20393;-70
2022/03/21 04:25:51;;;;;;;24.63;14.07;;;;;;;;;;5065265;28;20033;-70
2022/03/21 04:28:17;;;;;;;25.13;13.93;;;;;;;;;;5051130;28;20472;-70
2022/03/21 04:30:44;;;;;;;24.33;13.88;;;;;;;;;;5051418;28;20052;-70
2022/03/21 04:33:11;;;;;;;18.27;11.60;;;;;;;;;;5050215;28;20053;-70
2022/03/21 04:35:37;;;;;;;16.58;11.30;;;;;;;;;;5049898;28;20036;-70
2022/03/21 04:38:12;;;;;;;18.02;10.88;;;;;;;;;;5051759;28;20128;-70
2022/03/21 04:40:38;;;;;;;17.15;11.40;;;;;;;;;;5050075;28;20041;-70
2022/03/21 04:43:04;;;;;;;19.27;10.93;;;;;;;;;;5050908;28;20475;-70
2022/03/21 04:45:30;;;;;;;16.02;9.93;;;;;;;;;;5050129;28;20091;-70
2022/03/21 04:47:56;;;;;;;18.58;10.30;;;;;;;;;;5050000;28;20053;-70
2022/03/21 04:50:22;;;;;;;17.65;9.82;;;;;;;;;;5050900;28;20440;-70
2022/03/21 04:52:48;;;;;;;16.63;10.65;;;;;;;;;;5051174;28;20082;-70
2022/03/21 04:55:15;;;;;;;21.25;10.27;;;;;;;;;;5051543;28;20048;-70
2022/03/21 04:57:41;;;;;;;17.38;10.65;;;;;;;;;;5050823;28;20040;-70
2022/03/21 05:00:07;;;;;;;13.30;8.95;;;;;;;;;;5051147;28;20045;-70
2022/03/21 05:02:34;;;;;;;18.08;9.95;;;;;;;;;;5051245;28;20076;-70
2022/03/21 05:05:00;;;;;;;16.13;10.43;;;;;;;;;;5050870;28;20419;-70
2022/03/21 05:07:26;;;;;;;15.15;9.68;;;;;;;;;;5051182;28;20049;-70
2022/03/21 05:09:52;;;;;;;18.42;10.88;;;;;;;;;;5051373;28;20052;-70
2022/03/21 05:12:20;;;;;;;17.08;10.02;;;;;;;;;;5050724;28;20041;-70
2022/03/21 05:14:47;;;;;;;20.15;10.38;;;;;;;;;;5051126;28;20095;-70
2022/03/21 05:17:17;;;;;;;18.27;9.98;;;;;;;;;;5049683;28;20041;-70
2022/03/21 05:19:44;;;;;;;19.17;10.73;;;;;;;;;;5050724;28;20388;-70
2022/03/21 05:22:10;;;;;;;17.33;10.75;;;;;;;;;;5055135;28;20044;-70
2022/03/21 05:35:52;;;;;;;16.05;9.45;;;;;;;;;;5075094;28;20044;-71
2022/03/21 05:35:54;;;;;;;14.10;8.85;;;;;;;;;;5107026;28;20098;-71
2022/03/21 05:38:22;;;;;;;13.02;8.00;;;;;;;;;;5107494;28;20052;-71
2022/03/21 05:40:49;;;;;;;11.85;8.00;;;;;;;;;;5075038;28;20056;-71
2022/03/21 05:43:15;;;;;;;11.98;7.43;;;;;;;;;;5074121;28;20097;-71
2022/03/21 05:45:41;;;;;;;13.32;7.38;;;;;;;;;;5107102;28;20044;-71
2022/03/21 05:50:52;;;;;;;13.73;8.32;;;;;;;;;;5074003;28;20049;-71
2022/03/21 05:53:18;;;;;;;16.13;7.22;;;;;;;;;;5072998;28;20495;-71
2022/03/21 05:55:45;;;;;;;10.88;7.10;;;;;;;;;;5074498;28;20490;-71
2022/03/21 05:58:12;;;;;;;11.65;7.18;;;;;;;;;;5073939;28;20047;-71
2022/03/21 06:00:38;;;;;;;11.13;6.80;;;;;;;;;;5106973;28;20053;-71
2022/03/21 06:03:04;;;;;;;10.32;6.40;;;;;;;;;;5074203;28;20529;-71
2022/03/21 06:05:31;;;;;;;10.02;6.70;;;;;;;;;;5072679;28;20494;-71
2022/03/21 06:07:58;;;;;;;10.55;7.40;;;;;;;;;;5074468;28;20044;-71
2022/03/21 06:10:24;;;;;;;15.60;9.45;;;;;;;;;;5074554;28;20052;-71
2022/03/21 07:38:35;;;;;;;30.67;15.40;;;;;;;;;;5106071;27;20388;-68
2022/03/21 07:41:02;;;;;;;36.80;18.30;;;;;;;;;;5070748;28;20105;-70
2022/03/21 07:43:28;;;;;;;35.28;18.42;;;;;;;;;;5052877;28;20071;-70
2022/03/21 07:48:39;;;;;;;33.53;19.00;;;;;;;;;;5077116;28;20449;-68
2022/03/21 07:51:05;;;;;;;37.90;18.92;;;;;;;;;;5089323;28;20047;-67
2022/03/21 07:53:32;;;;;;;30.95;18.23;;;;;;;;;;5090152;28;20413;-66
2022/03/21 07:55:59;;;;;;;35.65;19.08;;;;;;;;;;5096251;28;20082;-66
2022/03/21 07:58:26;;;;;;;34.53;19.35;;;;;;;;;;5087319;28;20118;-66
2022/03/21 08:00:52;;;;;;;34.60;20.23;;;;;;;;;;5070160;28;20036;-69
2022/03/21 08:03:19;;;;;;;33.88;19.33;;;;;;;;;;5069428;28;20507;-67
2022/03/21 08:05:45;;;;;;;33.83;19.48;;;;;;;;;;5086657;28;20044;-66
2022/03/21 08:08:11;;;;;;;40.10;20.35;;;;;;;;;;5082115;28;20048;-68
2022/03/21 08:10:37;;;;;;;38.40;20.92;;;;;;;;;;5089401;28;20053;-69
2022/03/21 08:13:04;;;;;;;33.92;20.30;;;;;;;;;;5056857;28;20125;-68
2022/03/21 08:15:30;;;;;;;35.78;20.52;;;;;;;;;;5084772;28;20055;-68
2022/03/21 08:17:57;;;;;;;35.15;18.77;;;;;;;;;;5068280;28;20035;-67
2022/03/21 08:20:23;;;;;;;36.92;19.55;;;;;;;;;;5070254;28;20039;-68
2022/03/21 08:22:50;;;;;;;37.25;20.02;;;;;;;;;;5078421;28;20032;-69
2022/03/21 08:25:17;;;;;;;34.42;18.17;;;;;;;;;;5105589;28;20040;-67
2022/03/21 08:27:47;;;;;;;36.17;18.52;;;;;;;;;;5062840;28;20052;-69
2022/03/21 08:30:15;;;;;;;31.38;17.23;;;;;;;;;;5086222;28;20037;-70
2022/03/21 08:32:42;;;;;;;29.15;17.67;;;;;;;;;;5079942;28;20041;-69
2022/03/21 08:35:09;;;;;;;32.45;18.45;;;;;;;;;;5085914;28;20503;-68
2022/03/21 08:37:35;;;;;;;30.02;18.00;;;;;;;;;;5084074;28;20059;-69
2022/03/21 08:40:02;;;;;;;27.77;17.00;;;;;;;;;;5052657;28;20105;-68
2022/03/21 08:42:29;;;;;;;32.35;17.17;;;;;;;;;;5039915;28;20540;-69
2022/03/21 08:44:55;;;;;;;24.20;17.02;;;;;;;;;;5059428;28;20098;-68
2022/03/21 08:47:21;;;;;;;31.48;17.35;;;;;;;;;;5077878;28;20150;-68
2022/03/21 08:49:47;;;;;;;31.50;17.33;;;;;;;;;;5072772;28;20793;-70
2022/03/21 08:52:13;;;;;;;35.25;18.30;;;;;;;;;;5044479;28;20107;-69
2022/03/21 08:54:40;;;;;;;32.13;18.33;;;;;;;;;;5040538;28;20072;-70
2022/03/21 08:57:07;;;;;;;27.75;17.60;;;;;;;;;;5018346;28;20037;-70
2022/03/21 08:59:33;;;;;;;35.05;17.65;;;;;;;;;;5050649;28;20037;-69
2022/03/21 09:01:59;;;;;;;34.85;17.88;;;;;;;;;;5034932;28;20047;-73
2022/03/21 09:04:25;;;;;;;28.08;17.20;;;;;;;;;;5037946;28;20434;-69
2022/03/21 09:06:51;;;;;;;27.95;17.45;;;;;;;;;;5035964;28;20049;-68
2022/03/21 09:09:18;;;;;;;28.70;17.80;;;;;;;;;;5060971;28;20510;-68
2022/03/21 09:11:44;;;;;;;31.55;16.38;;;;;;;;;;5041311;28;20431;-69
2022/03/21 09:14:12;;;;;;;30.77;16.77;;;;;;;;;;5072820;28;20115;-68
2022/03/21 09:16:39;;;;;;;31.02;17.23;;;;;;;;;;5042232;28;20068;-70
2022/03/21 09:19:05;;;;;;;34.38;18.02;;;;;;;;;;5041785;28;20392;-70
2022/03/21 09:21:31;;;;;;;30.98;18.23;;;;;;;;;;5035960;28;20037;-68
2022/03/21 09:23:57;;;;;;;31.02;17.20;;;;;;;;;;5035369;28;20083;-68
2022/03/21 09:26:23;;;;;;;30.50;17.52;;;;;;;;;;5057705;28;20072;-70
2022/03/21 09:28:50;;;;;;;29.90;16.60;;;;;;;;;;5034158;28;20037;-67
2022/03/21 09:31:16;;;;;;;33.60;17.83;;;;;;;;;;5051589;28;20075;-69
2022/03/21 09:33:43;;;;;;;32.90;18.05;;;;;;;;;;5041499;28;20101;-69
2022/03/21 09:36:09;;;;;;;30.20;17.10;;;;;;;;;;5061265;28;20033;-68
2022/03/21 09:38:37;;;;;;;29.38;17.15;;;;;;;;;;5064710;28;20052;-69
2022/03/21 09:41:03;;;;;;;35.35;18.80;;;;;;;;;;5034757;28;20052;-67
2022/03/21 09:43:30;;;;;;;29.75;17.73;;;;;;;;;;5052399;28;20041;-67
2022/03/21 09:45:57;;;;;;;37.22;18.63;;;;;;;;;;5051796;28;20052;-69
2022/03/21 09:48:25;;;;;;;38.17;19.75;;;;;;;;;;5062204;28;20044;-67
2022/03/21 09:50:52;;;;;;;32.08;18.52;;;;;;;;;;5061042;28;20071;-69
2022/03/21 09:53:19;;;;;;;29.80;18.70;;;;;;;;;;5037432;28;20044;-71
2022/03/21 09:55:46;;;;;;;33.35;18.85;;;;;;;;;;5033788;28;20048;-71
2022/03/21 09:58:12;;;;;;;35.53;19.25;;;;;;;;;;5033747;28;20090;-69
2022/03/21 10:00:42;;;;;;;32.42;19.98;;;;;;;;;;5032533;28;20483;-68
2022/03/21 10:03:08;;;;;;;35.40;20.83;;;;;;;;;;5062957;28;20079;-69
2022/03/21 10:05:35;;;;;;;33.72;20.88;;;;;;;;;;5071137;28;20432;-69
2022/03/21 10:08:16;;;;;;;37.22;19.98;;;;;;;;;;5053587;28;20486;-69
2022/03/21 10:10:56;;;;;;;35.42;20.42;;;;;;;;;;5046891;28;20055;-67
2022/03/21 10:13:22;;;;;;;35.97;21.00;;;;;;;;;;5056769;28;20040;-69
2022/03/21 10:15:49;;;;;;;36.10;19.88;;;;;;;;;;5042991;28;20045;-65
2022/03/21 10:18:16;;;;;;;38.30;21.48;;;;;;;;;;5067121;28;20059;-64
2022/03/21 10:20:42;;;;;;;32.03;19.85;;;;;;;;;;5054392;28;20559;-65
2022/03/21 10:23:22;;;;;;;32.60;19.73;;;;;;;;;;5069412;28;20044;-63
2022/03/21 10:25:48;;;;;;;31.77;19.90;;;;;;;;;;5070524;28;20036;-63
2022/03/21 10:28:34;;;;;;;35.30;20.48;;;;;;;;;;5058805;28;20047;-63
2022/03/21 10:31:01;;;;;;;34.78;20.52;;;;;;;;;;5064967;28;20036;-63
2022/03/21 10:33:27;;;;;;;33.83;19.98;;;;;;;;;;5067516;28;20048;-63
2022/03/21 10:35:53;;;;;;;34.45;21.35;;;;;;;;;;5068152;28;20162;-63
2022/03/21 10:38:30;;;;;;;41.58;22.08;;;;;;;;;;5062286;28;20045;-66
2022/03/21 10:40:56;;;;;;;34.25;20.60;;;;;;;;;;5058838;28;20041;-65
2022/03/21 10:43:23;;;;;;;29.95;20.00;;;;;;;;;;5068260;28;20373;-65
2022/03/21 10:45:53;;;;;;;36.45;21.08;;;;;;;;;;5066428;28;20055;-64
2022/03/21 10:48:20;;;;;;;33.17;21.10;;;;;;;;;;5065853;28;20036;-69
2022/03/21 10:50:50;;;;;;;34.35;21.92;;;;;;;;;;5048281;28;20383;-68
2022/03/21 10:53:18;;;;;;;34.28;20.70;;;;;;;;;;5058369;28;20045;-68
2022/03/21 10:55:45;;;;;;;32.78;19.95;;;;;;;;;;5054887;28;20041;-69
2022/03/21 10:58:12;;;;;;;33.70;20.63;;;;;;;;;;5034278;28;20045;-68
2022/03/21 11:00:38;;;;;;;30.65;20.63;;;;;;;;;;5048054;28;20455;-67
2022/03/21 11:03:06;;;;;;;35.58;19.77;;;;;;;;;;5049448;28;20045;-68
2022/03/21 11:05:36;;;;;;;32.83;20.00;;;;;;;;;;5058245;28;20471;-66
2022/03/21 11:08:02;;;;;;;34.65;20.08;;;;;;;;;;5060138;28;20057;-66
2022/03/21 11:10:29;;;;;;;31.20;18.98;;;;;;;;;;5064125;28;20451;-67
2022/03/21 11:12:56;;;;;;;31.90;19.67;;;;;;;;;;5059656;28;20041;-69
2022/03/21 11:15:23;;;;;;;41.00;20.40;;;;;;;;;;5042357;28;20152;-67
2022/03/21 11:17:49;;;;;;;37.15;19.80;;;;;;;;;;5064220;28;20048;-68
2022/03/21 11:20:15;;;;;;;32.45;19.85;;;;;;;;;;5040167;28;20064;-67
2022/03/21 11:22:43;;;;;;;34.05;19.17;;;;;;;;;;5061327;28;20045;-69
2022/03/21 11:25:17;;;;;;;36.70;19.52;;;;;;;;;;5058675;28;20429;-66
2022/03/21 11:28:04;;;;;;;33.65;19.95;;;;;;;;;;5055823;28;20551;-69
2022/03/21 11:30:42;;;;;;;35.20;20.05;;;;;;;;;;5047152;28;20056;-72
2022/03/21 11:33:20;;;;;;;31.67;19.95;;;;;;;;;;5015061;28;20052;-68
2022/03/21 11:35:53;;;;;;;35.20;19.35;;;;;;;;;;5053817;28;20402;-68
2022/03/21 11:38:30;;;;;;;32.13;19.35;;;;;;;;;;5040832;28;20394;-67
2022/03/21 11:41:12;;;;;;;33.72;19.50;;;;;;;;;;5040628;28;20045;-68
2022/03/21 11:43:39;;;;;;;30.08;18.25;;;;;;;;;;5054719;28;20028;-68
2022/03/21 11:46:25;;;;;;;29.88;19.48;;;;;;;;;;5049272;28;20041;-66
2022/03/21 11:48:51;;;;;;;30.30;18.27;;;;;;;;;;5032925;28;20126;-67
2022/03/21 11:51:17;;;;;;;30.73;18.30;;;;;;;;;;5045449;28;20055;-69
2022/03/21 11:53:49;;;;;;;33.90;17.67;;;;;;;;;;5067432;28;20045;-69
2022/03/21 11:56:16;;;;;;;28.35;17.63;;;;;;;;;;5068051;28;20036;-67
2022/03/21 11:58:43;;;;;;;34.90;19.58;;;;;;;;;;5054838;28;20512;-68
2022/03/21 12:01:12;;;;;;;28.50;18.30;;;;;;;;;;5040152;28;20028;-69
2022/03/21 12:03:41;;;;;;;32.28;18.90;;;;;;;;;;5032319;28;20045;-69
2022/03/21 12:06:33;;;;;;;33.17;19.08;;;;;;;;;;5046683;28;20437;-69
2022/03/21 12:09:12;;;;;;;30.42;18.25;;;;;;;;;;5028606;28;20060;-69
2022/03/21 12:11:38;;;;;;;29.05;18.55;;;;;;;;;;5065890;28;20048;-69
2022/03/21 12:14:20;;;;;;;28.55;18.08;;;;;;;;;;5035811;28;20063;-71
2022/03/21 12:16:46;;;;;;;31.70;18.60;;;;;;;;;;5064364;28;20601;-71
2022/03/21 12:19:12;;;;;;;29.08;17.98;;;;;;;;;;5053800;28;20064;-72
2022/03/21 12:21:38;;;;;;;32.42;19.13;;;;;;;;;;5035042;28;20384;-71
2022/03/21 12:24:14;;;;;;;29.10;18.10;;;;;;;;;;5033280;28;20032;-70
2022/03/21 12:26:54;;;;;;;28.95;18.63;;;;;;;;;;5039222;28;20032;-72
2022/03/21 12:29:33;;;;;;;29.15;18.27;;;;;;;;;;5052566;28;20072;-71
2022/03/21 12:32:18;;;;;;;32.50;18.38;;;;;;;;;;5051291;28;20047;-72
2022/03/21 12:34:44;;;;;;;27.08;15.98;;;;;;;;;;5071244;28;20430;-72
2022/03/21 12:37:31;;;;;;;26.25;15.82;;;;;;;;;;5052906;28;20083;-71
2022/03/21 12:39:58;;;;;;;26.35;16.48;;;;;;;;;;5073070;28;20040;-69
2022/03/21 12:42:27;;;;;;;26.92;16.95;;;;;;;;;;5051891;28;20044;-69
2022/03/21 12:44:53;;;;;;;25.88;16.67;;;;;;;;;;5052411;28;20037;-70
2022/03/21 12:47:20;;;;;;;28.00;17.33;;;;;;;;;;5035487;28;20036;-67
2022/03/21 12:49:50;;;;;;;28.02;17.83;;;;;;;;;;5057734;28;20039;-69
2022/03/21 12:52:26;;;;;;;28.40;16.67;;;;;;;;;;5051184;28;20091;-66
2022/03/21 12:54:53;;;;;;;22.25;17.50;;;;;;;;;;5053348;28;20387;-68
2022/03/21 12:57:19;;;;;;;27.42;17.90;;;;;;;;;;5065851;28;20055;-68
2022/03/21 12:59:45;;;;;;;29.25;17.35;;;;;;;;;;5069802;28;20044;-70
2022/03/21 13:02:27;;;;;;;25.05;16.73;;;;;;;;;;5070940;28;20039;-64
2022/03/21 13:10:33;;;;;;;27.02;17.63;;;;;;;;;;5049595;28;20049;-69
2022/03/21 13:13:00;;;;;;;29.33;17.35;;;;;;;;;;5052053;28;20047;-65
2022/03/21 13:15:27;;;;;;;29.38;17.63;;;;;;;;;;5069905;28;20044;-65
2022/03/21 13:17:57;;;;;;;29.92;16.90;;;;;;;;;;5056387;28;20139;-66
2022/03/21 13:20:27;;;;;;;28.90;16.20;;;;;;;;;;5064785;28;20082;-68
2022/03/21 13:22:54;;;;;;;27.17;15.85;;;;;;;;;;5069596;28;20040;-66
2022/03/21 13:25:23;;;;;;;23.90;16.55;;;;;;;;;;5067708;28;20040;-64
2022/03/21 13:27:50;;;;;;;28.00;16.00;;;;;;;;;;5064642;28;20591;-62
2022/03/21 13:30:17;;;;;;;21.45;16.15;;;;;;;;;;5061530;28;20483;-66
2022/03/21 13:32:46;;;;;;;23.73;16.63;;;;;;;;;;5070061;28;20085;-64
2022/03/21 13:35:12;;;;;;;26.35;17.00;;;;;;;;;;5058629;28;20051;-68
2022/03/21 13:37:39;;;;;;;25.73;15.57;;;;;;;;;;5040425;28;20402;-66
2022/03/21 13:40:06;;;;;;;25.80;16.13;;;;;;;;;;5069672;28;20047;-66
2022/03/21 13:42:34;;;;;;;26.45;16.65;;;;;;;;;;5050626;28;20040;-67
2022/03/21 13:45:03;;;;;;;24.85;15.85;;;;;;;;;;5066433;28;20039;-67
2022/03/21 13:47:29;;;;;;;24.67;16.48;;;;;;;;;;5052118;28;20463;-69
2022/03/21 13:49:57;;;;;;;27.88;16.50;;;;;;;;;;5039602;28;20049;-67
2022/03/21 13:52:42;;;;;;;24.88;16.27;;;;;;;;;;5064447;28;20048;-65
2022/03/21 13:55:09;;;;;;;22.67;16.08;;;;;;;;;;5052259;28;20468;-65
2022/03/21 13:57:49;;;;;;;27.90;16.23;;;;;;;;;;5056360;28;20110;-68
2022/03/21 14:00:17;;;;;;;25.00;16.02;;;;;;;;;;5053520;28;20127;-68
2022/03/21 14:02:43;;;;;;;23.77;16.10;;;;;;;;;;5059578;28;20555;-68
2022/03/21 14:05:20;;;;;;;26.60;16.85;;;;;;;;;;5051296;28;20037;-67
2022/03/21 14:07:51;;;;;;;28.33;16.55;;;;;;;;;;5050878;28;20048;-68
2022/03/21 14:10:24;;;;;;;24.00;17.63;;;;;;;;;;5047360;28;20117;-67
2022/03/21 14:12:54;;;;;;;22.95;15.80;;;;;;;;;;5050541;28;20286;-66
2022/03/21 14:15:21;;;;;;;28.05;15.77;;;;;;;;;;5069650;28;20033;-64
2022/03/21 14:17:47;;;;;;;22.13;15.90;;;;;;;;;;5058317;28;20702;-65
2022/03/21 14:20:13;;;;;;;28.77;17.30;;;;;;;;;;5062857;28;20037;-63
2022/03/21 14:22:40;;;;;;;28.33;17.05;;;;;;;;;;5060241;28;20037;-63
2022/03/21 14:26:29;;;;;;;27.40;16.30;;;;;;;;;;5064558;28;20036;-65
2022/03/21 14:27:52;;;;;;;23.45;16.50;;;;;;;;;;5051616;28;20526;-64
2022/03/21 14:30:18;;;;;;;26.38;15.73;;;;;;;;;;5068978;28;20128;-64
2022/03/21 14:32:46;;;;;;;26.73;15.48;;;;;;;;;;5065397;28;21715;-66
2022/03/21 14:35:12;;;;;;;26.17;16.15;;;;;;;;;;5067739;28;20083;-65
2022/03/21 14:37:38;;;;;;;25.02;16.33;;;;;;;;;;5062733;28;20536;-66
2022/03/21 14:40:04;;;;;;;24.58;16.75;;;;;;;;;;5052042;28;20040;-64
2022/03/21 14:42:30;;;;;;;29.20;17.08;;;;;;;;;;5068348;28;20098;-63
2022/03/21 14:44:56;;;;;;;30.13;17.05;;;;;;;;;;5050824;28;20413;-62
2022/03/21 14:47:22;;;;;;;27.58;17.80;;;;;;;;;;5063083;28;20044;-64
2022/03/21 14:49:49;;;;;;;23.50;15.48;;;;;;;;;;5046556;28;20494;-63
2022/03/21 14:52:15;;;;;;;25.02;16.27;;;;;;;;;;5069876;28;20371;-65
2022/03/21 14:54:42;;;;;;;28.30;16.55;;;;;;;;;;5056526;28;20051;-64
2022/03/21 14:57:08;;;;;;;22.13;16.33;;;;;;;;;;5068530;28;20048;-64
2022/03/21 14:59:34;;;;;;;22.48;15.27;;;;;;;;;;5068734;28;20429;-66
2022/03/21 15:02:00;;;;;;;25.73;15.55;;;;;;;;;;5064209;28;20124;-66
2022/03/21 15:04:27;;;;;;;28.30;16.25;;;;;;;;;;5050727;28;20107;-65
2022/03/21 15:06:53;;;;;;;23.02;15.27;;;;;;;;;;5064101;28;20040;-66
2022/03/21 15:09:20;;;;;;;26.30;15.70;;;;;;;;;;5062945;28;20523;-65
2022/03/21 15:11:46;;;;;;;29.83;15.95;;;;;;;;;;5065431;28;20045;-65
2022/03/21 15:14:12;;;;;;;27.38;16.15;;;;;;;;;;5060749;28;20043;-65
2022/03/21 15:16:40;;;;;;;26.42;16.08;;;;;;;;;;5060290;28;20481;-63
2022/03/21 15:19:10;;;;;;;26.70;16.88;;;;;;;;;;5055742;28;20040;-65
2022/03/21 15:21:36;;;;;;;25.17;15.40;;;;;;;;;;5060510;28;20049;-66
2022/03/21 15:24:02;;;;;;;25.23;16.17;;;;;;;;;;5064056;28;20444;-64
2022/03/21 15:26:29;;;;;;;23.90;15.27;;;;;;;;;;5064504;28;20524;-64
2022/03/21 15:28:55;;;;;;;26.55;16.98;;;;;;;;;;5066103;28;20037;-65
2022/03/21 15:31:21;;;;;;;26.73;16.35;;;;;;;;;;5066597;28;20455;-64
2022/03/21 15:33:47;;;;;;;22.40;16.45;;;;;;;;;;5049850;28;20037;-65
2022/03/21 15:41:43;;;;;;;26.00;16.90;;;;;;;;;;5051367;28;20041;-64
2022/03/21 15:44:10;;;;;;;28.13;17.17;;;;;;;;;;5050640;28;20089;-65
2022/03/21 15:46:36;;;;;;;26.77;16.90;;;;;;;;;;5032271;28;20049;-65
2022/03/21 15:49:02;;;;;;;31.45;17.55;;;;;;;;;;5036066;28;20140;-65
2022/03/21 15:51:28;;;;;;;27.40;18.10;;;;;;;;;;5050111;28;20570;-64
2022/03/21 15:53:54;;;;;;;32.28;17.50;;;;;;;;;;5055760;28;20078;-64
2022/03/21 15:56:20;;;;;;;31.00;17.60;;;;;;;;;;5069412;28;20032;-65
2022/03/21 15:58:46;;;;;;;35.63;19.35;;;;;;;;;;5052747;28;20419;-65
2022/03/21 16:01:14;;;;;;;28.38;17.50;;;;;;;;;;5054899;28;20052;-64
2022/03/21 16:03:40;;;;;;;26.55;16.20;;;;;;;;;;5084947;28;20055;-64
2022/03/21 16:06:06;;;;;;;26.20;17.25;;;;;;;;;;5068502;28;20419;-65
2022/03/21 16:08:34;;;;;;;28.27;17.40;;;;;;;;;;5049361;28;20056;-65
2022/03/21 16:11:00;;;;;;;30.15;18.27;;;;;;;;;;5053851;28;20041;-66
2022/03/21 16:13:26;;;;;;;27.73;17.02;;;;;;;;;;5054805;28;20056;-64
2022/03/21 16:15:55;;;;;;;26.15;15.93;;;;;;;;;;5064543;28;20076;-64